Weather History for McGregor, TX

Change the Weather History Date:

Wednesday, July 24, 2013

  Actual Average Record
Temperature  
Mean Temperature 86 °F -  
Max Temperature 96 °F 93 °F 105 °F (2011)
Min Temperature 75 °F 71 °F 69 °F (2000)
Cooling Degree Days 20    
Growing Degree Days 36 (Base 50)    
Moisture  
Dew Point 70 °F    
Average Humidity 61    
Maximum Humidity 83    
Minimum Humidity 41    
Precipitation  
Precipitation 0.00 in - - ()
Sea Level Pressure  
Sea Level Pressure 29.93 in    
Wind  
Wind Speed 10 mph (South)    
Max Wind Speed 15 mph    
Max Gust Speed 21 mph    
Visibility 10 miles    
Events      
Averages and records for this station are not official NWS values.
T = Trace of Precipitation, MM = Missing Value Source: NWS Daily Summary

Daily Weather History Graph

Daily Weather History Graph

Search for Another Location

Airport:

Trip Planner

Search our weather history database for the weather conditions in past years. The results will help you decide how hot, cold, wet, or windy it might be!

Date:

Astronomy

Jul. 24, 2013 Rise Set
Actual Time 6:40 AM CDT 8:30 PM CDT
Civil Twilight 6:13 AM CDT 8:57 PM CDT
Nautical Twilight 5:41 AM CDT 9:29 PM CDT
Astronomical Twilight 5:06 AM CDT 10:04 PM CDT
Moon 9:52 PM CDT (7/24) 8:49 AM CDT (7/24)
Length of Visible Light 14h 43m
Length of Day
13h 49m
Waning Gibbous, 94% of the Moon is Illuminated
Jul 24
Waning Gibbous
Jul 29
Last Quarter
Aug 6
New
Aug 14
First Quarter
Aug 20
Full

Hourly Weather History & Observations

Time (CDT) Temp. Heat Index Dew Point Humidity Pressure Visibility Wind Dir Wind Speed Gust Speed Precip Events Conditions
12:15 AM 82.4 °F 83.9 °F 64.4 °F 54% 29.91 in 10.0 mi South 10.4 mph - N/A   Clear
12:35 AM 82.4 °F 83.9 °F 64.4 °F 54% 29.91 in 10.0 mi South 12.7 mph - N/A   Clear
12:55 AM 80.6 °F 82.3 °F 64.4 °F 58% 29.90 in 10.0 mi South 13.8 mph - N/A   Clear
1:15 AM 80.6 °F 82.3 °F 64.4 °F 58% 29.90 in 10.0 mi South 12.7 mph - N/A   Clear
1:35 AM 80.6 °F 82.7 °F 66.2 °F 61% 29.90 in 10.0 mi South 15.0 mph 20.7 mph N/A   Clear
1:55 AM 80.6 °F 82.7 °F 66.2 °F 61% 29.91 in 10.0 mi South 11.5 mph - N/A   Clear
2:15 AM 80.6 °F 83.2 °F 68.0 °F 65% 29.91 in 10.0 mi South 9.2 mph - N/A   Clear
2:35 AM 80.6 °F 83.9 °F 69.8 °F 70% 29.91 in 10.0 mi SSW 15.0 mph 18.4 mph N/A   Clear
2:55 AM 78.8 °F - 69.8 °F 74% 29.91 in 10.0 mi South 12.7 mph - N/A   Clear
3:15 AM 78.8 °F - 69.8 °F 74% 29.91 in 10.0 mi South 12.7 mph - N/A   Clear
3:35 AM 78.8 °F - 69.8 °F 74% 29.91 in 10.0 mi South 11.5 mph - N/A   Clear
3:55 AM 78.8 °F - 69.8 °F 74% 29.91 in 10.0 mi SSW 12.7 mph - N/A   Clear
4:15 AM 78.8 °F - 69.8 °F 74% 29.91 in 10.0 mi South 11.5 mph - N/A   Clear
4:35 AM 78.8 °F - 69.8 °F 74% 29.91 in 10.0 mi SSW 13.8 mph 19.6 mph N/A   Clear
4:55 AM 77.0 °F - 69.8 °F 78% 29.92 in 10.0 mi South 12.7 mph - N/A   Clear
5:15 AM 77.0 °F - 69.8 °F 78% 29.93 in 10.0 mi SSW 10.4 mph - N/A   Clear
5:35 AM 77.0 °F - 69.8 °F 78% 29.94 in 10.0 mi SSW 8.1 mph - N/A   Clear
5:55 AM 77.0 °F - 69.8 °F 78% 29.95 in 10.0 mi SSW 5.8 mph - N/A   Clear
6:15 AM 75.2 °F - 69.8 °F 83% 29.96 in 10.0 mi South 6.9 mph - N/A   Clear
6:35 AM 75.2 °F - 69.8 °F 83% 29.96 in 10.0 mi South 6.9 mph - N/A   Clear
6:55 AM 75.2 °F - 69.8 °F 83% 29.95 in 9.0 mi South 6.9 mph - N/A   Clear
7:15 AM 75.2 °F - 69.8 °F 83% 29.95 in 9.0 mi South 8.1 mph - N/A   Clear
7:35 AM 75.2 °F - 69.8 °F 83% 29.95 in 9.0 mi South 8.1 mph - N/A   Clear
7:55 AM 75.2 °F - 69.8 °F 83% 29.94 in 10.0 mi South 10.4 mph - N/A   Clear
8:15 AM 77.0 °F - 69.8 °F 78% 29.95 in 10.0 mi South 10.4 mph - N/A   Clear
8:35 AM 78.8 °F - 71.6 °F 78% 29.97 in 10.0 mi SSW 8.1 mph - N/A   Clear
8:55 AM 80.6 °F 84.6 °F 71.6 °F 74% 29.97 in 10.0 mi South 13.8 mph 17.3 mph N/A   Clear
9:15 AM 80.6 °F 84.6 °F 71.6 °F 74% 29.97 in 10.0 mi SSW 11.5 mph - N/A   Clear
9:35 AM 82.4 °F 87.2 °F 71.6 °F 70% 29.98 in 10.0 mi SSW 12.7 mph 17.3 mph N/A   Clear
9:55 AM 84.2 °F 89.6 °F 71.6 °F 66% 29.99 in 10.0 mi SW 11.5 mph - N/A   Clear
10:15 AM 84.2 °F 89.6 °F 71.6 °F 66% 30.00 in 10.0 mi WNW 4.6 mph - N/A   Scattered Clouds
10:35 AM 86.0 °F 91.8 °F 71.6 °F 62% 30.01 in 10.0 mi West 5.8 mph - N/A   Partly Cloudy
10:55 AM 87.8 °F 93.8 °F 71.6 °F 58% 30.01 in 10.0 mi Calm Calm - N/A   Clear
11:15 AM 87.8 °F 93.8 °F 71.6 °F 58% 30.02 in 10.0 mi NNW 4.6 mph - N/A   Scattered Clouds
11:35 AM 87.8 °F 93.8 °F 71.6 °F 58% 30.01 in 10.0 mi NE 8.1 mph 16.1 mph N/A   Mostly Cloudy
11:55 AM 89.6 °F 96.2 °F 71.6 °F 55% 30.00 in 10.0 mi ESE 5.8 mph - N/A   Scattered Clouds
12:15 PM 89.6 °F 96.2 °F 71.6 °F 55% 30.00 in 10.0 mi NNE 6.9 mph - N/A   Partly Cloudy
12:35 PM 89.6 °F 96.2 °F 71.6 °F 55% 29.99 in 10.0 mi East 5.8 mph - N/A   Clear
12:55 PM 89.6 °F 96.2 °F 71.6 °F 55% 29.98 in 10.0 mi East 8.1 mph - N/A   Scattered Clouds
1:15 PM 91.4 °F 98.4 °F 71.6 °F 52% 29.97 in 10.0 mi East 6.9 mph - N/A   Partly Cloudy
1:35 PM 91.4 °F 98.4 °F 71.6 °F 52% 29.96 in 10.0 mi SSE 10.4 mph - N/A   Partly Cloudy
1:55 PM 93.2 °F 100.5 °F 71.6 °F 49% 29.94 in 10.0 mi SE 9.2 mph - N/A   Mostly Cloudy
2:15 PM 93.2 °F 100.5 °F 71.6 °F 49% 29.94 in 10.0 mi SE 4.6 mph - N/A   Scattered Clouds
2:35 PM 95.0 °F 103.2 °F 71.6 °F 47% 29.93 in 10.0 mi South 6.9 mph - N/A   Scattered Clouds
2:55 PM 96.8 °F 107.3 °F 73.4 °F 47% 29.92 in 10.0 mi SE 5.8 mph - N/A   Partly Cloudy
3:15 PM 95.0 °F 103.2 °F 71.6 °F 47% 29.91 in 10.0 mi SSE 3.5 mph - N/A   Partly Cloudy
3:35 PM 96.8 °F 105.1 °F 71.6 °F 44% 29.90 in 10.0 mi SW 10.4 mph - N/A   Partly Cloudy
3:55 PM 96.8 °F 105.1 °F 71.6 °F 44% 29.90 in 10.0 mi South 8.1 mph - N/A   Clear
4:15 PM 96.8 °F 105.1 °F 71.6 °F 44% 29.89 in 10.0 mi WSW 6.9 mph - N/A   Clear
4:35 PM 96.8 °F 105.1 °F 71.6 °F 44% 29.88 in 10.0 mi South 6.9 mph - N/A   Clear
4:55 PM 96.8 °F 105.1 °F 71.6 °F 44% 29.88 in 10.0 mi SSW 6.9 mph - N/A   Clear
5:15 PM 96.8 °F 105.1 °F 71.6 °F 44% 29.88 in 10.0 mi Calm Calm - N/A   Clear
5:35 PM 96.8 °F 105.1 °F 71.6 °F 44% 29.88 in 9.0 mi South 8.1 mph - N/A   Clear
5:55 PM 96.8 °F 105.1 °F 71.6 °F 44% 29.88 in 10.0 mi SE 9.2 mph - N/A   Clear
6:15 PM 96.8 °F 105.1 °F 71.6 °F 44% 29.88 in 10.0 mi SSE 5.8 mph - N/A   Clear
6:35 PM 96.8 °F 103.1 °F 69.8 °F 41% 29.88 in 10.0 mi SE 8.1 mph - N/A   Clear
6:55 PM 95.0 °F 101.3 °F 69.8 °F 44% 29.88 in 10.0 mi South 8.1 mph - N/A   Clear
7:15 PM 95.0 °F 103.2 °F 71.6 °F 47% 29.88 in 10.0 mi South 9.2 mph - N/A   Clear
7:35 PM 93.2 °F 100.5 °F 71.6 °F 49% 29.88 in 10.0 mi SSE 8.1 mph - N/A   Clear
7:55 PM 93.2 °F 100.5 °F 71.6 °F 49% 29.89 in 10.0 mi SSE 6.9 mph - N/A   Clear
8:15 PM 91.4 °F 98.4 °F 71.6 °F 52% 29.89 in 10.0 mi SSE 5.8 mph - N/A   Clear
8:35 PM 91.4 °F 98.4 °F 71.6 °F 52% 29.90 in 10.0 mi SSE 5.8 mph - N/A   Clear
8:55 PM 89.6 °F 94.7 °F 69.8 °F 52% 29.90 in 8.0 mi SSE 5.8 mph - N/A   Clear
9:15 PM 87.8 °F 92.6 °F 69.8 °F 55% 29.91 in 10.0 mi SSE 5.8 mph - N/A   Clear
9:35 PM 86.0 °F 90.4 °F 69.8 °F 58% 29.92 in 10.0 mi South 4.6 mph - N/A   Clear
9:55 PM 84.2 °F 88.4 °F 69.8 °F 62% 29.92 in 10.0 mi SSE 4.6 mph - N/A   Clear
10:15 PM 84.2 °F 88.4 °F 69.8 °F 62% 29.93 in 10.0 mi SSE 4.6 mph - N/A   Clear
10:35 PM 84.2 °F 88.4 °F 69.8 °F 62% 29.94 in 10.0 mi SSE 5.8 mph - N/A   Clear
10:55 PM 84.2 °F 88.4 °F 69.8 °F 62% 29.94 in 10.0 mi South 5.8 mph - N/A   Clear
11:15 PM 82.4 °F 86.3 °F 69.8 °F 66% 29.94 in 10.0 mi South 5.8 mph - N/A   Clear
11:35 PM 82.4 °F 86.3 °F 69.8 °F 66% 29.95 in 10.0 mi South 4.6 mph - N/A   Clear
11:55 PM 82.4 °F 86.3 °F 69.8 °F 66% 29.96 in 10.0 mi SSE 4.6 mph - N/A   Clear